sensor_id;sensor_type;location;lat;lon;timestamp;pressure;altitude;pressure_sealevel;temperature;humidity
15971;BME280;59785;52.582;13.892;2022-12-18T00:02:00;102467.09;;;-4.05;93.95
15971;BME280;59785;52.582;13.892;2022-12-18T00:04:27;102469.78;;;-4.11;94.38
15971;BME280;59785;52.582;13.892;2022-12-18T00:06:53;102477.56;;;-4.05;94.32
15971;BME280;59785;52.582;13.892;2022-12-18T00:09:20;102475.81;;;-4.05;93.89
15971;BME280;59785;52.582;13.892;2022-12-18T00:11:49;102484.56;;;-4.06;93.91
15971;BME280;59785;52.582;13.892;2022-12-18T00:14:15;102488.03;;;-4.04;93.90
15971;BME280;59785;52.582;13.892;2022-12-18T00:16:45;102495.91;;;-4.05;94.04
15971;BME280;59785;52.582;13.892;2022-12-18T00:19:13;102498.50;;;-4.02;94.26
15971;BME280;59785;52.582;13.892;2022-12-18T00:21:39;102495.88;;;-4.01;93.73
15971;BME280;59785;52.582;13.892;2022-12-18T00:24:06;102496.75;;;-4.05;93.25
15971;BME280;59785;52.582;13.892;2022-12-18T00:26:33;102497.66;;;-4.06;93.15
15971;BME280;59785;52.582;13.892;2022-12-18T00:29:04;102498.47;;;-4.01;92.61
15971;BME280;59785;52.582;13.892;2022-12-18T00:31:30;102499.38;;;-4.05;92.57
15971;BME280;59785;52.582;13.892;2022-12-18T00:33:59;102500.28;;;-4.07;91.76
15971;BME280;59785;52.582;13.892;2022-12-18T00:36:31;102504.75;;;-4.17;91.90
15971;BME280;59785;52.582;13.892;2022-12-18T00:39:00;102496.06;;;-4.21;91.76
15971;BME280;59785;52.582;13.892;2022-12-18T00:41:27;102490.81;;;-4.21;91.91
15971;BME280;59785;52.582;13.892;2022-12-18T00:44:14;102489.97;;;-4.21;91.11
15971;BME280;59785;52.582;13.892;2022-12-18T00:46:41;102485.66;;;-4.27;91.25
15971;BME280;59785;52.582;13.892;2022-12-18T00:49:08;102486.56;;;-4.28;91.24
15971;BME280;59785;52.582;13.892;2022-12-18T00:51:34;102487.34;;;-4.23;90.64
15971;BME280;59785;52.582;13.892;2022-12-18T00:54:00;102490.88;;;-4.25;90.95
15971;BME280;59785;52.582;13.892;2022-12-18T00:56:26;102489.19;;;-4.29;91.13
15971;BME280;59785;52.582;13.892;2022-12-18T00:58:53;102482.19;;;-4.30;90.92
15971;BME280;59785;52.582;13.892;2022-12-18T01:01:19;102484.00;;;-4.36;90.14
15971;BME280;59785;52.582;13.892;2022-12-18T01:03:45;102484.88;;;-4.37;89.65
15971;BME280;59785;52.582;13.892;2022-12-18T01:06:14;102490.25;;;-4.50;89.48
15971;BME280;59785;52.582;13.892;2022-12-18T01:08:41;102490.31;;;-4.58;89.87
15971;BME280;59785;52.582;13.892;2022-12-18T01:11:14;102493.84;;;-4.65;90.10
15971;BME280;59785;52.582;13.892;2022-12-18T01:13:41;102494.75;;;-4.66;90.78
15971;BME280;59785;52.582;13.892;2022-12-18T01:16:07;102498.28;;;-4.73;90.62
15971;BME280;59785;52.582;13.892;2022-12-18T01:18:35;102490.50;;;-4.81;91.88
15971;BME280;59785;52.582;13.892;2022-12-18T01:21:06;102494.03;;;-4.84;92.63
15971;BME280;59785;52.582;13.892;2022-12-18T01:23:35;102493.13;;;-4.81;93.18
15971;BME280;59785;52.582;13.892;2022-12-18T01:26:07;102490.59;;;-4.92;93.75
15971;BME280;59785;52.582;13.892;2022-12-18T01:28:34;102484.63;;;-5.09;94.62
15971;BME280;59785;52.582;13.892;2022-12-18T01:31:21;102495.13;;;-5.19;96.49
15971;BME280;59785;52.582;13.892;2022-12-18T01:33:48;102504.63;;;-5.04;97.18
15971;BME280;59785;52.582;13.892;2022-12-18T01:36:18;102497.59;;;-4.97;96.98
15971;BME280;59785;52.582;13.892;2022-12-18T01:38:45;102501.94;;;-4.93;97.23
15971;BME280;59785;52.582;13.892;2022-12-18T01:41:13;102510.63;;;-4.88;96.68
15971;BME280;59785;52.582;13.892;2022-12-18T01:46:10;102508.81;;;-4.80;96.69
15971;BME280;59785;52.582;13.892;2022-12-18T01:48:36;102507.91;;;-4.79;96.10
15971;BME280;59785;52.582;13.892;2022-12-18T01:51:06;102506.19;;;-4.78;95.88
15971;BME280;59785;52.582;13.892;2022-12-18T01:53:32;102508.81;;;-4.80;95.60
15971;BME280;59785;52.582;13.892;2022-12-18T01:55:59;102507.09;;;-4.82;96.08
15971;BME280;59785;52.582;13.892;2022-12-18T01:58:46;102511.44;;;-4.83;96.35
15971;BME280;59785;52.582;13.892;2022-12-18T02:01:14;102526.22;;;-4.79;96.27
15971;BME280;59785;52.582;13.892;2022-12-18T02:03:42;102525.34;;;-4.76;95.30
15971;BME280;59785;52.582;13.892;2022-12-18T02:06:13;102517.50;;;-4.81;95.33
15971;BME280;59785;52.582;13.892;2022-12-18T02:11:41;102514.91;;;-4.81;94.72
15971;BME280;59785;52.582;13.892;2022-12-18T02:14:38;102514.94;;;-4.85;93.38
15971;BME280;59785;52.582;13.892;2022-12-18T02:17:17;102513.25;;;-4.91;93.30
15971;BME280;59785;52.582;13.892;2022-12-18T02:23:06;102522.88;;;-4.96;93.80
15971;BME280;59785;52.582;13.892;2022-12-18T02:28:22;102515.91;;;-4.99;93.46
15971;BME280;59785;52.582;13.892;2022-12-18T02:30:53;102516.81;;;-5.01;93.79
15971;BME280;59785;52.582;13.892;2022-12-18T02:33:27;102521.13;;;-4.97;94.54
15971;BME280;59785;52.582;13.892;2022-12-18T02:35:55;102522.84;;;-4.93;94.08
15971;BME280;59785;52.582;13.892;2022-12-18T02:38:24;102527.22;;;-4.98;94.59
15971;BME280;59785;52.582;13.892;2022-12-18T02:40:53;102530.72;;;-4.96;94.39
15971;BME280;59785;52.582;13.892;2022-12-18T02:43:21;102535.94;;;-4.96;94.66
15971;BME280;59785;52.582;13.892;2022-12-18T02:48:21;102531.59;;;-4.97;94.01
15971;BME280;59785;52.582;13.892;2022-12-18T02:54:21;102545.50;;;-4.98;93.95
15971;BME280;59785;52.582;13.892;2022-12-18T02:56:55;102546.41;;;-4.99;94.25
15971;BME280;59785;52.582;13.892;2022-12-18T02:59:35;102557.75;;;-5.03;93.55
15971;BME280;59785;52.582;13.892;2022-12-18T03:05:03;102557.75;;;-5.03;93.47
15971;BME280;59785;52.582;13.892;2022-12-18T03:07:42;102556.94;;;-5.18;93.20
15971;BME280;59785;52.582;13.892;2022-12-18T03:10:14;102560.50;;;-5.28;93.49
15971;BME280;59785;52.582;13.892;2022-12-18T03:12:47;102571.84;;;-5.29;94.68
15971;BME280;59785;52.582;13.892;2022-12-18T03:15:19;102570.94;;;-5.26;95.15
15971;BME280;59785;52.582;13.892;2022-12-18T03:18:07;102571.81;;;-5.26;94.99
15971;BME280;59785;52.582;13.892;2022-12-18T03:20:36;102567.44;;;-5.22;95.43
15971;BME280;59785;52.582;13.892;2022-12-18T03:23:16;102574.38;;;-5.20;94.36
15971;BME280;59785;52.582;13.892;2022-12-18T03:25:48;102564.84;;;-5.21;93.47
15971;BME280;59785;52.582;13.892;2022-12-18T03:28:20;102567.41;;;-5.18;93.25
15971;BME280;59785;52.582;13.892;2022-12-18T03:30:56;102574.38;;;-5.15;93.59
15971;BME280;59785;52.582;13.892;2022-12-18T03:33:37;102577.00;;;-5.17;93.57
15971;BME280;59785;52.582;13.892;2022-12-18T03:36:06;102579.66;;;-5.21;93.59
15971;BME280;59785;52.582;13.892;2022-12-18T03:38:32;102587.44;;;-5.20;93.92
15971;BME280;59785;52.582;13.892;2022-12-18T03:41:04;102577.91;;;-5.19;93.74
15971;BME280;59785;52.582;13.892;2022-12-18T03:43:54;102567.41;;;-5.13;93.82
15971;BME280;59785;52.582;13.892;2022-12-18T03:47:03;102562.19;;;-5.15;92.95
15971;BME280;59785;52.582;13.892;2022-12-18T03:49:35;102567.44;;;-5.19;92.91
15971;BME280;59785;52.582;13.892;2022-12-18T03:52:09;102565.72;;;-5.25;92.82
15971;BME280;59785;52.582;13.892;2022-12-18T03:54:40;102557.91;;;-5.36;92.96
15971;BME280;59785;52.582;13.892;2022-12-18T03:57:23;102563.25;;;-5.56;93.28
15971;BME280;59785;52.582;13.892;2022-12-18T03:59:56;102559.81;;;-5.70;94.30
15971;BME280;59785;52.582;13.892;2022-12-18T04:02:28;102564.19;;;-5.80;95.93
15971;BME280;59785;52.582;13.892;2022-12-18T04:05:01;102573.72;;;-5.71;96.69
15971;BME280;59785;52.582;13.892;2022-12-18T04:07:30;102576.41;;;-5.96;96.97
15971;BME280;59785;52.582;13.892;2022-12-18T04:09:59;102567.69;;;-5.88;97.46
15971;BME280;59785;52.582;13.892;2022-12-18T04:12:28;102570.28;;;-5.79;98.36
15971;BME280;59785;52.582;13.892;2022-12-18T04:14:55;102577.22;;;-5.66;98.17
15971;BME280;59785;52.582;13.892;2022-12-18T04:17:21;102576.31;;;-5.65;97.68
15971;BME280;59785;52.582;13.892;2022-12-18T04:19:48;102579.81;;;-5.66;97.51
15971;BME280;59785;52.582;13.892;2022-12-18T04:22:15;102587.63;;;-5.60;96.82
15971;BME280;59785;52.582;13.892;2022-12-18T04:24:45;102578.06;;;-5.65;96.39
15971;BME280;59785;52.582;13.892;2022-12-18T04:27:23;102570.25;;;-5.73;95.66
15971;BME280;59785;52.582;13.892;2022-12-18T04:29:49;102574.56;;;-5.64;95.82
15971;BME280;59785;52.582;13.892;2022-12-18T04:32:17;102575.47;;;-5.64;95.54
15971;BME280;59785;52.582;13.892;2022-12-18T04:34:43;102571.97;;;-5.60;95.05
15971;BME280;59785;52.582;13.892;2022-12-18T04:37:09;102576.28;;;-5.52;94.83
15971;BME280;59785;52.582;13.892;2022-12-18T04:39:36;102587.59;;;-5.50;94.68
15971;BME280;59785;52.582;13.892;2022-12-18T04:42:08;102594.56;;;-5.49;94.39
15971;BME280;59785;52.582;13.892;2022-12-18T04:44:34;102597.19;;;-5.56;93.65
15971;BME280;59785;52.582;13.892;2022-12-18T04:47:00;102609.38;;;-5.58;94.55
15971;BME280;59785;52.582;13.892;2022-12-18T04:49:26;102597.19;;;-5.52;94.32
15971;BME280;59785;52.582;13.892;2022-12-18T04:51:53;102603.34;;;-5.72;94.07
15971;BME280;59785;52.582;13.892;2022-12-18T04:54:20;102598.13;;;-5.72;95.00
15971;BME280;59785;52.582;13.892;2022-12-18T13:53:32;102704.34;;;-3.02;92.74
15971;BME280;59785;52.582;13.892;2022-12-18T13:55:59;102700.28;;;-3.29;92.86
15971;BME280;59785;52.582;13.892;2022-12-18T13:58:25;102698.81;;;-3.58;94.67
15971;BME280;59785;52.582;13.892;2022-12-18T14:00:52;102691.72;;;-3.44;95.66
15971;BME280;59785;52.582;13.892;2022-12-18T14:03:21;102687.25;;;-3.39;95.66
15971;BME280;59785;52.582;13.892;2022-12-18T14:05:58;102696.03;;;-3.40;95.78
15971;BME280;59785;52.582;13.892;2022-12-18T14:08:30;102682.00;;;-3.37;96.07
15971;BME280;59785;52.582;13.892;2022-12-18T14:10:58;102668.06;;;-3.39;95.44
15971;BME280;59785;52.582;13.892;2022-12-18T14:13:28;102669.91;;;-3.46;95.79
15971;BME280;59785;52.582;13.892;2022-12-18T14:15:56;102670.75;;;-3.44;96.04
15971;BME280;59785;52.582;13.892;2022-12-18T14:21:03;102662.09;;;-3.53;96.38
15971;BME280;59785;52.582;13.892;2022-12-18T14:25:56;102658.56;;;-3.46;97.41
15971;BME280;59785;52.582;13.892;2022-12-18T14:28:31;102658.50;;;-3.45;97.08
15971;BME280;59785;52.582;13.892;2022-12-18T14:30:57;102672.53;;;-3.49;96.67
15971;BME280;59785;52.582;13.892;2022-12-18T14:33:26;102673.44;;;-3.51;96.78
15971;BME280;59785;52.582;13.892;2022-12-18T14:36:05;102657.66;;;-3.47;96.57
15971;BME280;59785;52.582;13.892;2022-12-18T14:38:38;102646.31;;;-3.47;96.56
15971;BME280;59785;52.582;13.892;2022-12-18T14:43:34;102648.25;;;-3.66;96.39
15971;BME280;59785;52.582;13.892;2022-12-18T14:46:02;102645.69;;;-3.72;96.87
15971;BME280;59785;52.582;13.892;2022-12-18T14:48:38;102643.22;;;-3.88;97.83
15971;BME280;59785;52.582;13.892;2022-12-18T14:51:14;102635.50;;;-4.05;98.97
15971;BME280;59785;52.582;13.892;2022-12-18T14:53:44;102632.13;;;-4.16;99.83
15971;BME280;59785;52.582;13.892;2022-12-18T14:56:25;102619.84;;;-4.11;100.00
15971;BME280;59785;52.582;13.892;2022-12-18T14:58:54;102616.38;;;-4.11;100.00
15971;BME280;59785;52.582;13.892;2022-12-18T15:01:26;102614.53;;;-3.99;100.00
15971;BME280;59785;52.582;13.892;2022-12-18T15:03:55;102602.25;;;-3.93;100.00
15971;BME280;59785;52.582;13.892;2022-12-18T15:06:29;102601.41;;;-3.96;100.00
15971;BME280;59785;52.582;13.892;2022-12-18T15:08:57;102590.06;;;-3.96;100.00
15971;BME280;59785;52.582;13.892;2022-12-18T15:14:35;102597.13;;;-4.06;100.00
15971;BME280;59785;52.582;13.892;2022-12-18T15:17:18;102603.34;;;-4.16;100.00
15971;BME280;59785;52.582;13.892;2022-12-18T15:19:48;102615.59;;;-4.18;100.00
15971;BME280;59785;52.582;13.892;2022-12-18T15:24:44;102645.13;;;-4.07;100.00
15971;BME280;59785;52.582;13.892;2022-12-18T15:27:21;102658.28;;;-4.11;100.00
15971;BME280;59785;52.582;13.892;2022-12-18T15:32:35;102663.44;;;-4.04;100.00
15971;BME280;59785;52.582;13.892;2022-12-18T15:37:37;102663.44;;;-4.01;100.00
15971;BME280;59785;52.582;13.892;2022-12-18T15:40:05;102665.16;;;-4.00;100.00
15971;BME280;59785;52.582;13.892;2022-12-18T15:42:31;102661.63;;;-3.97;100.00
15971;BME280;59785;52.582;13.892;2022-12-18T15:45:16;102653.75;;;-3.91;100.00
15971;BME280;59785;52.582;13.892;2022-12-18T15:47:44;102659.84;;;-3.93;100.00
15971;BME280;59785;52.582;13.892;2022-12-18T15:50:10;102656.31;;;-3.89;100.00
15971;BME280;59785;52.582;13.892;2022-12-18T15:52:41;102646.75;;;-3.92;99.49
15971;BME280;59785;52.582;13.892;2022-12-18T15:55:22;102636.34;;;-4.01;99.14
15971;BME280;59785;52.582;13.892;2022-12-18T15:58:08;102632.09;;;-4.14;100.00
15971;BME280;59785;52.582;13.892;2022-12-18T16:00:36;102634.72;;;-4.13;100.00
15971;BME280;59785;52.582;13.892;2022-12-18T16:03:04;102635.66;;;-4.20;100.00
15971;BME280;59785;52.582;13.892;2022-12-18T16:05:31;102639.94;;;-4.13;100.00
15971;BME280;59785;52.582;13.892;2022-12-18T16:07:57;102640.75;;;-4.05;100.00
15971;BME280;59785;52.582;13.892;2022-12-18T16:10:25;102644.22;;;-4.01;99.89
15971;BME280;59785;52.582;13.892;2022-12-18T16:12:52;102635.47;;;-3.99;99.38
15971;BME280;59785;52.582;13.892;2022-12-18T16:15:18;102639.00;;;-4.03;98.90
15971;BME280;59785;52.582;13.892;2022-12-18T16:17:49;102631.13;;;-4.01;99.29
15971;BME280;59785;52.582;13.892;2022-12-18T16:20:20;102622.41;;;-4.02;98.66
15971;BME280;59785;52.582;13.892;2022-12-18T16:22:47;102622.41;;;-3.99;98.39
15971;BME280;59785;52.582;13.892;2022-12-18T16:25:19;102623.25;;;-4.00;98.44
15971;BME280;59785;52.582;13.892;2022-12-18T16:27:45;102630.25;;;-4.02;97.99
15971;BME280;59785;52.582;13.892;2022-12-18T16:30:27;102621.63;;;-4.13;98.42
15971;BME280;59785;52.582;13.892;2022-12-18T16:33:03;102624.25;;;-4.14;98.88
15971;BME280;59785;52.582;13.892;2022-12-18T16:35:29;102615.53;;;-4.12;98.45
15971;BME280;59785;52.582;13.892;2022-12-18T16:37:55;102617.31;;;-4.19;99.10
15971;BME280;59785;52.582;13.892;2022-12-18T16:40:21;102607.75;;;-4.23;99.27
15971;BME280;59785;52.582;13.892;2022-12-18T16:42:47;102599.09;;;-4.28;99.59
15971;BME280;59785;52.582;13.892;2022-12-18T16:45:16;102600.75;;;-4.22;99.49
15971;BME280;59785;52.582;13.892;2022-12-18T16:47:43;102596.41;;;-4.23;99.62
15971;BME280;59785;52.582;13.892;2022-12-18T16:50:10;102595.50;;;-4.16;99.12
15971;BME280;59785;52.582;13.892;2022-12-18T16:52:37;102600.81;;;-4.28;98.32
15971;BME280;59785;52.582;13.892;2022-12-18T16:55:03;102607.75;;;-4.24;99.00
15971;BME280;59785;52.582;13.892;2022-12-18T16:57:30;102601.59;;;-4.16;99.29
15971;BME280;59785;52.582;13.892;2022-12-18T16:59:56;102605.94;;;-4.14;98.95
15971;BME280;59785;52.582;13.892;2022-12-18T17:02:29;102596.38;;;-4.19;98.87
15971;BME280;59785;52.582;13.892;2022-12-18T17:04:57;102598.13;;;-4.22;99.00
15971;BME280;59785;52.582;13.892;2022-12-18T17:07:24;102601.59;;;-4.14;99.35
15971;BME280;59785;52.582;13.892;2022-12-18T17:09:51;102605.91;;;-4.13;98.86
15971;BME280;59785;52.582;13.892;2022-12-18T17:12:19;102598.13;;;-4.21;98.93
15971;BME280;59785;52.582;13.892;2022-12-18T17:14:46;102593.81;;;-4.26;98.11
15971;BME280;59785;52.582;13.892;2022-12-18T17:17:12;102590.34;;;-4.28;98.81
15971;BME280;59785;52.582;13.892;2022-12-18T17:19:48;102585.97;;;-4.25;99.20
15971;BME280;59785;52.582;13.892;2022-12-18T17:22:14;102596.47;;;-4.29;98.99
15971;BME280;59785;52.582;13.892;2022-12-18T17:24:40;102588.69;;;-4.42;99.14
15971;BME280;59785;52.582;13.892;2022-12-18T17:27:06;102597.41;;;-4.38;99.73
15971;BME280;59785;52.582;13.892;2022-12-18T17:29:33;102595.63;;;-4.31;99.84
15971;BME280;59785;52.582;13.892;2022-12-18T17:31:59;102596.44;;;-4.26;99.50
15971;BME280;59785;52.582;13.892;2022-12-18T17:34:26;102595.63;;;-4.31;99.53
15971;BME280;59785;52.582;13.892;2022-12-18T17:36:53;102600.84;;;-4.30;99.31
15971;BME280;59785;52.582;13.892;2022-12-18T17:39:19;102606.03;;;-4.25;99.21
15971;BME280;59785;52.582;13.892;2022-12-18T17:41:46;102608.78;;;-4.42;98.99
15971;BME280;59785;52.582;13.892;2022-12-18T17:44:13;102613.19;;;-4.49;98.95
15971;BME280;59785;52.582;13.892;2022-12-18T17:46:39;102614.19;;;-4.68;99.78
15971;BME280;59785;52.582;13.892;2022-12-18T17:49:05;102618.53;;;-4.64;100.00
15971;BME280;59785;52.582;13.892;2022-12-18T17:51:31;102617.63;;;-4.60;100.00
15971;BME280;59785;52.582;13.892;2022-12-18T17:53:58;102615.88;;;-4.61;100.00
15971;BME280;59785;52.582;13.892;2022-12-18T17:56:24;102612.41;;;-4.63;100.00
15971;BME280;59785;52.582;13.892;2022-12-18T17:58:50;102605.53;;;-4.77;100.00
15971;BME280;59785;52.582;13.892;2022-12-18T18:01:22;102608.16;;;-4.80;100.00
15971;BME280;59785;52.582;13.892;2022-12-18T18:03:49;102611.69;;;-4.82;100.00
15971;BME280;59785;52.582;13.892;2022-12-18T18:06:18;102604.75;;;-4.91;100.00
15971;BME280;59785;52.582;13.892;2022-12-18T18:08:44;102589.97;;;-4.98;100.00
15971;BME280;59785;52.582;13.892;2022-12-18T18:11:13;102595.19;;;-4.98;100.00
15971;BME280;59785;52.582;13.892;2022-12-18T18:13:59;102594.34;;;-5.03;100.00
15971;BME280;59785;52.582;13.892;2022-12-18T18:19:01;102593.53;;;-5.11;100.00
15971;BME280;59785;52.582;13.892;2022-12-18T18:21:28;102589.25;;;-5.25;100.00
15971;BME280;59785;52.582;13.892;2022-12-18T18:23:58;102576.25;;;-5.39;100.00
15971;BME280;59785;52.582;13.892;2022-12-18T18:26:24;102577.16;;;-5.57;100.00
15971;BME280;59785;52.582;13.892;2022-12-18T18:28:54;102565.03;;;-5.71;100.00
15971;BME280;59785;52.582;13.892;2022-12-18T18:31:25;102560.72;;;-5.86;100.00
15971;BME280;59785;52.582;13.892;2022-12-18T18:33:51;102557.25;;;-5.90;100.00
15971;BME280;59785;52.582;13.892;2022-12-18T18:36:17;102563.38;;;-5.96;100.00
15971;BME280;59785;52.582;13.892;2022-12-18T18:38:44;102565.13;;;-6.01;100.00
15971;BME280;59785;52.582;13.892;2022-12-18T18:41:13;102563.41;;;-6.09;100.00
15971;BME280;59785;52.582;13.892;2022-12-18T18:43:40;102563.41;;;-6.16;100.00
15971;BME280;59785;52.582;13.892;2022-12-18T18:46:10;102551.25;;;-6.24;100.00
15971;BME280;59785;52.582;13.892;2022-12-18T18:48:38;102539.06;;;-6.25;100.00
15971;BME280;59785;52.582;13.892;2022-12-18T18:51:12;102551.25;;;-6.20;100.00
15971;BME280;59785;52.582;13.892;2022-12-18T18:53:47;102555.59;;;-6.23;100.00
15971;BME280;59785;52.582;13.892;2022-12-18T18:56:15;102550.41;;;-6.26;100.00
15971;BME280;59785;52.582;13.892;2022-12-18T18:59:01;102545.19;;;-6.28;100.00
15971;BME280;59785;52.582;13.892;2022-12-18T19:01:27;102536.47;;;-6.31;100.00
15971;BME280;59785;52.582;13.892;2022-12-18T19:03:54;102539.06;;;-6.35;100.00
15971;BME280;59785;52.582;13.892;2022-12-18T19:06:25;102525.19;;;-6.43;100.00
15971;BME280;59785;52.582;13.892;2022-12-18T19:08:54;102513.00;;;-6.42;100.00
15971;BME280;59785;52.582;13.892;2022-12-18T19:11:22;102509.53;;;-6.43;100.00
15971;BME280;59785;52.582;13.892;2022-12-18T19:14:08;102500.84;;;-6.42;100.00
15971;BME280;59785;52.582;13.892;2022-12-18T19:16:35;102503.44;;;-6.40;100.00
15971;BME280;59785;52.582;13.892;2022-12-18T19:19:03;102503.44;;;-6.37;100.00
15971;BME280;59785;52.582;13.892;2022-12-18T19:21:29;102505.16;;;-6.35;100.00
15971;BME280;59785;52.582;13.892;2022-12-18T19:24:00;102510.41;;;-6.38;100.00
15971;BME280;59785;52.582;13.892;2022-12-18T19:26:26;102497.34;;;-6.33;100.00
15971;BME280;59785;52.582;13.892;2022-12-18T19:28:53;102508.66;;;-6.29;100.00
15971;BME280;59785;52.582;13.892;2022-12-18T19:31:24;102506.91;;;-6.33;100.00
15971;BME280;59785;52.582;13.892;2022-12-18T19:33:58;102501.69;;;-6.35;100.00
15971;BME280;59785;52.582;13.892;2022-12-18T19:36:27;102489.56;;;-6.45;100.00
15971;BME280;59785;52.582;13.892;2022-12-18T19:38:56;102499.97;;;-6.45;100.00
15971;BME280;59785;52.582;13.892;2022-12-18T19:41:23;102492.16;;;-6.48;100.00
15971;BME280;59785;52.582;13.892;2022-12-18T19:43:51;102487.81;;;-6.51;100.00
15971;BME280;59785;52.582;13.892;2022-12-18T19:46:20;102486.97;;;-6.51;100.00
15971;BME280;59785;52.582;13.892;2022-12-18T19:48:47;102480.88;;;-6.47;100.00
15971;BME280;59785;52.582;13.892;2022-12-18T19:53:46;102482.59;;;-6.48;100.00
15971;BME280;59785;52.582;13.892;2022-12-18T19:56:14;102474.78;;;-6.59;100.00
15971;BME280;59785;52.582;13.892;2022-12-18T19:58:42;102470.44;;;-6.55;100.00
15971;BME280;59785;52.582;13.892;2022-12-18T20:01:10;102476.50;;;-6.50;100.00
15971;BME280;59785;52.582;13.892;2022-12-18T20:03:37;102476.50;;;-6.47;100.00
15971;BME280;59785;52.582;13.892;2022-12-18T20:08:35;102473.03;;;-6.44;100.00
15971;BME280;59785;52.582;13.892;2022-12-18T20:11:01;102478.22;;;-6.44;100.00
15971;BME280;59785;52.582;13.892;2022-12-18T20:13:28;102477.41;;;-6.49;100.00
15971;BME280;59785;52.582;13.892;2022-12-18T20:15:54;102474.75;;;-6.46;100.00
15971;BME280;59785;52.582;13.892;2022-12-18T20:18:20;102463.44;;;-6.42;100.00
15971;BME280;59785;52.582;13.892;2022-12-18T20:20:47;102457.38;;;-6.33;100.00
15971;BME280;59785;52.582;13.892;2022-12-18T20:23:15;102449.53;;;-6.27;100.00
15971;BME280;59785;52.582;13.892;2022-12-18T20:25:41;102448.63;;;-6.25;100.00
15971;BME280;59785;52.582;13.892;2022-12-18T20:28:07;102444.31;;;-6.29;100.00
15971;BME280;59785;52.582;13.892;2022-12-18T20:30:33;102441.69;;;-6.17;100.00
15971;BME280;59785;52.582;13.892;2022-12-18T20:33:00;102446.00;;;-6.14;100.00
15971;BME280;59785;52.582;13.892;2022-12-18T20:35:26;102431.22;;;-6.09;100.00
15971;BME280;59785;52.582;13.892;2022-12-18T20:37:53;102432.94;;;-6.05;100.00
15971;BME280;59785;52.582;13.892;2022-12-18T20:40:25;102436.38;;;-6.00;100.00
15971;BME280;59785;52.582;13.892;2022-12-18T20:42:51;102444.16;;;-5.90;100.00
15971;BME280;59785;52.582;13.892;2022-12-18T20:45:18;102441.50;;;-5.84;100.00
15971;BME280;59785;52.582;13.892;2022-12-18T20:47:45;102442.41;;;-5.87;100.00
15971;BME280;59785;52.582;13.892;2022-12-18T20:50:11;102460.66;;;-5.87;100.00
15971;BME280;59785;52.582;13.892;2022-12-18T20:52:37;102461.56;;;-5.92;100.00
15971;BME280;59785;52.582;13.892;2022-12-18T20:55:05;102449.38;;;-5.89;100.00
15971;BME280;59785;52.582;13.892;2022-12-18T20:57:31;102449.38;;;-5.89;100.00
15971;BME280;59785;52.582;13.892;2022-12-18T20:59:57;102448.47;;;-5.86;100.00
15971;BME280;59785;52.582;13.892;2022-12-18T21:02:24;102447.63;;;-5.91;100.00
15971;BME280;59785;52.582;13.892;2022-12-18T21:04:50;102441.53;;;-5.90;100.00
15971;BME280;59785;52.582;13.892;2022-12-18T21:07:16;102438.88;;;-5.86;100.00
15971;BME280;59785;52.582;13.892;2022-12-18T21:09:43;102444.09;;;-5.77;100.00
15971;BME280;59785;52.582;13.892;2022-12-18T21:12:12;102439.78;;;-5.91;100.00
15971;BME280;59785;52.582;13.892;2022-12-18T21:15:12;102432.81;;;-5.83;100.00
15971;BME280;59785;52.582;13.892;2022-12-18T21:17:39;102433.63;;;-5.78;100.00
15971;BME280;59785;52.582;13.892;2022-12-18T21:20:10;102423.19;;;-5.78;100.00
15971;BME280;59785;52.582;13.892;2022-12-18T21:22:42;102424.06;;;-5.76;100.00
15971;BME280;59785;52.582;13.892;2022-12-18T21:25:08;102423.19;;;-5.75;100.00
15971;BME280;59785;52.582;13.892;2022-12-18T21:27:34;102415.31;;;-5.66;100.00
15971;BME280;59785;52.582;13.892;2022-12-18T21:30:01;102412.72;;;-5.66;100.00
15971;BME280;59785;52.582;13.892;2022-12-18T21:32:27;102415.31;;;-5.66;100.00
15971;BME280;59785;52.582;13.892;2022-12-18T21:34:58;102407.44;;;-5.63;100.00
15971;BME280;59785;52.582;13.892;2022-12-18T21:37:24;102403.13;;;-5.65;100.00
15971;BME280;59785;52.582;13.892;2022-12-18T21:39:50;102396.19;;;-5.71;100.00
15971;BME280;59785;52.582;13.892;2022-12-18T21:42:16;102400.56;;;-5.75;100.00
15971;BME280;59785;52.582;13.892;2022-12-18T21:45:01;102406.63;;;-5.72;100.00
15971;BME280;59785;52.582;13.892;2022-12-18T21:47:28;102404.03;;;-5.68;100.00
15971;BME280;59785;52.582;13.892;2022-12-18T21:49:54;102410.94;;;-5.62;100.00
15971;BME280;59785;52.582;13.892;2022-12-18T21:52:20;102404.88;;;-5.66;100.00
15971;BME280;59785;52.582;13.892;2022-12-18T21:54:57;102402.31;;;-5.72;100.00
15971;BME280;59785;52.582;13.892;2022-12-18T21:57:33;102411.00;;;-5.73;100.00
15971;BME280;59785;52.582;13.892;2022-12-18T21:59:59;102404.88;;;-5.69;100.00
15971;BME280;59785;52.582;13.892;2022-12-18T22:02:36;102402.22;;;-5.61;100.00
15971;BME280;59785;52.582;13.892;2022-12-18T22:05:03;102389.13;;;-5.57;100.00
15971;BME280;59785;52.582;13.892;2022-12-18T22:07:29;102390.06;;;-5.62;100.00
15971;BME280;59785;52.582;13.892;2022-12-18T22:09:56;102385.69;;;-5.62;100.00
15971;BME280;59785;52.582;13.892;2022-12-18T22:12:24;102389.97;;;-5.51;100.00
15971;BME280;59785;52.582;13.892;2022-12-18T22:15:10;102389.16;;;-5.60;100.00
15971;BME280;59785;52.582;13.892;2022-12-18T22:17:38;102383.09;;;-5.66;100.00
15971;BME280;59785;52.582;13.892;2022-12-18T22:20:05;102377.88;;;-5.65;100.00
15971;BME280;59785;52.582;13.892;2022-12-18T22:22:31;102378.81;;;-5.72;100.00
15971;BME280;59785;52.582;13.892;2022-12-18T22:24:57;102381.34;;;-5.63;100.00
15971;BME280;59785;52.582;13.892;2022-12-18T22:27:23;102373.56;;;-5.69;100.00
15971;BME280;59785;52.582;13.892;2022-12-18T22:29:50;102367.47;;;-5.68;100.00
15971;BME280;59785;52.582;13.892;2022-12-18T22:32:32;102366.63;;;-5.70;100.00